sensor_id;sensor_type;location;lat;lon;timestamp;temperature;humidity
3854;DHT22;1942;48.770;8.934;2022-08-03T00:01:40;18.50;99.90
3854;DHT22;1942;48.770;8.934;2022-08-03T00:04:07;18.50;99.90
3854;DHT22;1942;48.770;8.934;2022-08-03T00:06:35;18.50;99.90
3854;DHT22;1942;48.770;8.934;2022-08-03T00:09:02;18.50;99.90
3854;DHT22;1942;48.770;8.934;2022-08-03T00:11:29;18.50;99.90
3854;DHT22;1942;48.770;8.934;2022-08-03T00:13:56;18.50;99.90
3854;DHT22;1942;48.770;8.934;2022-08-03T00:16:24;18.50;99.90
3854;DHT22;1942;48.770;8.934;2022-08-03T00:18:51;18.40;99.90
3854;DHT22;1942;48.770;8.934;2022-08-03T00:21:17;18.30;99.90
3854;DHT22;1942;48.770;8.934;2022-08-03T00:23:44;18.40;99.90
3854;DHT22;1942;48.770;8.934;2022-08-03T00:26:11;18.40;99.90
3854;DHT22;1942;48.770;8.934;2022-08-03T00:28:38;18.30;99.90
3854;DHT22;1942;48.770;8.934;2022-08-03T00:31:05;18.30;99.90
3854;DHT22;1942;48.770;8.934;2022-08-03T00:33:33;18.20;99.90
3854;DHT22;1942;48.770;8.934;2022-08-03T00:36:00;18.20;99.90
3854;DHT22;1942;48.770;8.934;2022-08-03T00:38:26;18.10;99.90
3854;DHT22;1942;48.770;8.934;2022-08-03T00:40:53;18.10;99.90
3854;DHT22;1942;48.770;8.934;2022-08-03T00:43:24;18.10;99.90
3854;DHT22;1942;48.770;8.934;2022-08-03T00:45:51;18.00;99.90
3854;DHT22;1942;48.770;8.934;2022-08-03T00:48:19;18.00;99.90
3854;DHT22;1942;48.770;8.934;2022-08-03T00:50:48;18.00;99.90
3854;DHT22;1942;48.770;8.934;2022-08-03T00:53:14;18.00;99.90
3854;DHT22;1942;48.770;8.934;2022-08-03T00:55:42;18.00;99.90
3854;DHT22;1942;48.770;8.934;2022-08-03T00:58:10;18.00;99.90
3854;DHT22;1942;48.770;8.934;2022-08-03T01:00:38;18.00;99.90
3854;DHT22;1942;48.770;8.934;2022-08-03T01:03:06;18.00;99.90
3854;DHT22;1942;48.770;8.934;2022-08-03T01:05:37;18.00;99.90
3854;DHT22;1942;48.770;8.934;2022-08-03T01:08:11;18.00;99.90
3854;DHT22;1942;48.770;8.934;2022-08-03T01:10:44;18.00;99.90
3854;DHT22;1942;48.770;8.934;2022-08-03T01:13:21;18.00;99.90
3854;DHT22;1942;48.770;8.934;2022-08-03T01:15:55;18.00;99.90
3854;DHT22;1942;48.770;8.934;2022-08-03T01:18:27;18.00;99.90
3854;DHT22;1942;48.770;8.934;2022-08-03T01:20:57;18.00;99.90
3854;DHT22;1942;48.770;8.934;2022-08-03T01:23:35;18.00;99.90
3854;DHT22;1942;48.770;8.934;2022-08-03T01:26:12;17.90;99.90
3854;DHT22;1942;48.770;8.934;2022-08-03T01:28:59;17.90;99.90
3854;DHT22;1942;48.770;8.934;2022-08-03T01:31:38;17.90;99.90
3854;DHT22;1942;48.770;8.934;2022-08-03T01:34:09;17.90;99.90
3854;DHT22;1942;48.770;8.934;2022-08-03T01:36:39;17.90;99.90
3854;DHT22;1942;48.770;8.934;2022-08-03T01:39:09;17.90;99.90
3854;DHT22;1942;48.770;8.934;2022-08-03T01:41:41;17.80;99.90
3854;DHT22;1942;48.770;8.934;2022-08-03T01:44:10;17.80;99.90
3854;DHT22;1942;48.770;8.934;2022-08-03T01:46:39;17.70;99.90
3854;DHT22;1942;48.770;8.934;2022-08-03T01:49:07;17.70;99.90
3854;DHT22;1942;48.770;8.934;2022-08-03T01:51:36;17.60;99.90
3854;DHT22;1942;48.770;8.934;2022-08-03T01:54:03;17.70;99.90
3854;DHT22;1942;48.770;8.934;2022-08-03T01:56:31;17.60;99.90
3854;DHT22;1942;48.770;8.934;2022-08-03T01:59:00;17.60;99.90
3854;DHT22;1942;48.770;8.934;2022-08-03T02:01:28;17.50;99.90
3854;DHT22;1942;48.770;8.934;2022-08-03T02:04:00;17.50;99.90
3854;DHT22;1942;48.770;8.934;2022-08-03T02:06:30;17.50;99.90
3854;DHT22;1942;48.770;8.934;2022-08-03T02:08:58;17.40;99.90
3854;DHT22;1942;48.770;8.934;2022-08-03T02:11:26;17.40;99.90
3854;DHT22;1942;48.770;8.934;2022-08-03T02:13:57;17.30;99.90
3854;DHT22;1942;48.770;8.934;2022-08-03T02:16:26;17.30;99.90
3854;DHT22;1942;48.770;8.934;2022-08-03T02:18:54;17.20;99.90
3854;DHT22;1942;48.770;8.934;2022-08-03T02:21:23;17.10;99.90
3854;DHT22;1942;48.770;8.934;2022-08-03T02:23:50;17.10;99.90
3854;DHT22;1942;48.770;8.934;2022-08-03T02:26:18;17.20;99.90
3854;DHT22;1942;48.770;8.934;2022-08-03T02:28:48;17.10;99.90
3854;DHT22;1942;48.770;8.934;2022-08-03T02:31:18;17.10;99.90
3854;DHT22;1942;48.770;8.934;2022-08-03T02:33:48;17.00;99.90
3854;DHT22;1942;48.770;8.934;2022-08-03T02:36:19;17.00;99.90
3854;DHT22;1942;48.770;8.934;2022-08-03T02:38:52;17.10;99.90
3854;DHT22;1942;48.770;8.934;2022-08-03T02:41:23;17.10;99.90
3854;DHT22;1942;48.770;8.934;2022-08-03T02:43:53;17.10;99.90
3854;DHT22;1942;48.770;8.934;2022-08-03T02:46:24;17.10;99.90
3854;DHT22;1942;48.770;8.934;2022-08-03T02:48:53;17.10;99.90
3854;DHT22;1942;48.770;8.934;2022-08-03T02:51:21;17.10;99.90
3854;DHT22;1942;48.770;8.934;2022-08-03T02:53:50;17.10;99.90
3854;DHT22;1942;48.770;8.934;2022-08-03T02:56:18;17.10;99.90
3854;DHT22;1942;48.770;8.934;2022-08-03T02:58:47;17.00;99.90
3854;DHT22;1942;48.770;8.934;2022-08-03T03:01:15;17.00;99.90
3854;DHT22;1942;48.770;8.934;2022-08-03T03:03:44;17.00;99.90
3854;DHT22;1942;48.770;8.934;2022-08-03T03:06:12;17.00;99.90
3854;DHT22;1942;48.770;8.934;2022-08-03T03:08:39;17.00;99.90
3854;DHT22;1942;48.770;8.934;2022-08-03T03:11:07;17.00;99.90
3854;DHT22;1942;48.770;8.934;2022-08-03T03:13:36;17.00;99.90
3854;DHT22;1942;48.770;8.934;2022-08-03T03:16:05;17.00;99.90
3854;DHT22;1942;48.770;8.934;2022-08-03T03:18:32;16.90;99.90
3854;DHT22;1942;48.770;8.934;2022-08-03T03:21:00;16.90;99.90
3854;DHT22;1942;48.770;8.934;2022-08-03T03:23:30;16.90;99.90
3854;DHT22;1942;48.770;8.934;2022-08-03T03:25:58;16.90;99.90
3854;DHT22;1942;48.770;8.934;2022-08-03T03:28:28;16.80;99.90
3854;DHT22;1942;48.770;8.934;2022-08-03T03:30:54;16.80;99.90
3854;DHT22;1942;48.770;8.934;2022-08-03T03:33:22;16.80;99.90
3854;DHT22;1942;48.770;8.934;2022-08-03T03:35:49;16.80;99.90
3854;DHT22;1942;48.770;8.934;2022-08-03T03:38:17;16.80;99.90
3854;DHT22;1942;48.770;8.934;2022-08-03T03:40:44;16.70;99.90
3854;DHT22;1942;48.770;8.934;2022-08-03T03:43:12;16.70;99.90
3854;DHT22;1942;48.770;8.934;2022-08-03T03:45:41;16.60;99.90
3854;DHT22;1942;48.770;8.934;2022-08-03T03:48:08;16.60;99.90
3854;DHT22;1942;48.770;8.934;2022-08-03T03:50:35;16.50;99.90
3854;DHT22;1942;48.770;8.934;2022-08-03T03:53:08;16.50;99.90
3854;DHT22;1942;48.770;8.934;2022-08-03T03:55:35;16.50;99.90
3854;DHT22;1942;48.770;8.934;2022-08-03T03:58:02;16.50;99.90
3854;DHT22;1942;48.770;8.934;2022-08-03T04:00:29;16.50;99.90
3854;DHT22;1942;48.770;8.934;2022-08-03T04:02:58;16.50;99.90
3854;DHT22;1942;48.770;8.934;2022-08-03T04:05:25;16.60;99.90
3854;DHT22;1942;48.770;8.934;2022-08-03T04:08:11;16.60;99.90
3854;DHT22;1942;48.770;8.934;2022-08-03T04:11:04;16.60;99.90
3854;DHT22;1942;48.770;8.934;2022-08-03T04:13:34;16.60;99.90
3854;DHT22;1942;48.770;8.934;2022-08-03T04:16:03;16.70;99.90
3854;DHT22;1942;48.770;8.934;2022-08-03T04:18:33;16.70;99.90
3854;DHT22;1942;48.770;8.934;2022-08-03T04:21:02;16.60;99.90
3854;DHT22;1942;48.770;8.934;2022-08-03T04:23:32;16.60;99.90
3854;DHT22;1942;48.770;8.934;2022-08-03T04:26:01;16.60;99.90
3854;DHT22;1942;48.770;8.934;2022-08-03T04:28:29;16.60;99.90
3854;DHT22;1942;48.770;8.934;2022-08-03T04:30:57;16.60;99.90
3854;DHT22;1942;48.770;8.934;2022-08-03T04:33:25;16.50;99.90
3854;DHT22;1942;48.770;8.934;2022-08-03T04:35:56;16.40;99.90
3854;DHT22;1942;48.770;8.934;2022-08-03T04:38:24;16.40;99.90
3854;DHT22;1942;48.770;8.934;2022-08-03T04:40:53;16.50;99.90
3854;DHT22;1942;48.770;8.934;2022-08-03T04:43:21;16.60;99.90
3854;DHT22;1942;48.770;8.934;2022-08-03T04:45:50;16.50;99.90
3854;DHT22;1942;48.770;8.934;2022-08-03T04:48:18;16.60;99.90
3854;DHT22;1942;48.770;8.934;2022-08-03T04:50:45;16.60;99.90
3854;DHT22;1942;48.770;8.934;2022-08-03T04:53:15;16.60;99.90
3854;DHT22;1942;48.770;8.934;2022-08-03T04:55:42;16.60;99.90
3854;DHT22;1942;48.770;8.934;2022-08-03T04:58:09;16.70;99.90
3854;DHT22;1942;48.770;8.934;2022-08-03T05:00:37;16.70;99.90
3854;DHT22;1942;48.770;8.934;2022-08-03T05:03:03;16.80;99.90
3854;DHT22;1942;48.770;8.934;2022-08-03T05:05:30;16.80;99.90
3854;DHT22;1942;48.770;8.934;2022-08-03T05:07:57;16.80;99.90
3854;DHT22;1942;48.770;8.934;2022-08-03T05:10:25;16.80;99.90
3854;DHT22;1942;48.770;8.934;2022-08-03T05:12:52;16.90;99.90
3854;DHT22;1942;48.770;8.934;2022-08-03T05:15:19;16.90;99.90
3854;DHT22;1942;48.770;8.934;2022-08-03T05:17:46;17.00;99.90
3854;DHT22;1942;48.770;8.934;2022-08-03T05:20:13;17.10;99.90
3854;DHT22;1942;48.770;8.934;2022-08-03T05:22:40;17.10;99.90
3854;DHT22;1942;48.770;8.934;2022-08-03T05:25:07;17.20;99.90
3854;DHT22;1942;48.770;8.934;2022-08-03T05:27:35;17.20;99.90
3854;DHT22;1942;48.770;8.934;2022-08-03T05:30:02;17.30;99.90
3854;DHT22;1942;48.770;8.934;2022-08-03T05:32:29;17.40;99.90
3854;DHT22;1942;48.770;8.934;2022-08-03T05:34:56;17.40;99.90
3854;DHT22;1942;48.770;8.934;2022-08-03T05:37:22;17.50;99.90
3854;DHT22;1942;48.770;8.934;2022-08-03T05:39:49;17.60;99.90
3854;DHT22;1942;48.770;8.934;2022-08-03T05:42:16;17.70;99.90
3854;DHT22;1942;48.770;8.934;2022-08-03T05:44:44;17.70;99.90
3854;DHT22;1942;48.770;8.934;2022-08-03T05:47:11;17.80;99.90
3854;DHT22;1942;48.770;8.934;2022-08-03T05:49:37;17.90;99.90
3854;DHT22;1942;48.770;8.934;2022-08-03T05:52:04;17.90;99.90
3854;DHT22;1942;48.770;8.934;2022-08-03T05:54:31;18.00;99.90
3854;DHT22;1942;48.770;8.934;2022-08-03T05:56:58;18.00;99.90
3854;DHT22;1942;48.770;8.934;2022-08-03T05:59:24;18.10;99.90
3854;DHT22;1942;48.770;8.934;2022-08-03T06:01:53;18.20;99.90
3854;DHT22;1942;48.770;8.934;2022-08-03T06:04:19;18.30;99.90
3854;DHT22;1942;48.770;8.934;2022-08-03T06:06:46;18.40;99.90
3854;DHT22;1942;48.770;8.934;2022-08-03T06:09:15;18.50;99.90
3854;DHT22;1942;48.770;8.934;2022-08-03T06:11:41;18.60;99.90
3854;DHT22;1942;48.770;8.934;2022-08-03T06:14:08;18.70;99.90
3854;DHT22;1942;48.770;8.934;2022-08-03T06:16:35;18.80;99.90
3854;DHT22;1942;48.770;8.934;2022-08-03T06:19:03;18.90;99.90
3854;DHT22;1942;48.770;8.934;2022-08-03T06:21:30;18.90;99.90
3854;DHT22;1942;48.770;8.934;2022-08-03T06:23:56;19.00;99.90
3854;DHT22;1942;48.770;8.934;2022-08-03T06:26:24;19.10;99.90
3854;DHT22;1942;48.770;8.934;2022-08-03T06:28:52;19.20;99.90
3854;DHT22;1942;48.770;8.934;2022-08-03T06:31:19;19.30;99.90
3854;DHT22;1942;48.770;8.934;2022-08-03T06:33:47;19.50;99.90
3854;DHT22;1942;48.770;8.934;2022-08-03T06:36:15;19.60;99.90
3854;DHT22;1942;48.770;8.934;2022-08-03T06:38:42;19.70;99.90
3854;DHT22;1942;48.770;8.934;2022-08-03T06:41:08;19.90;99.90
3854;DHT22;1942;48.770;8.934;2022-08-03T06:43:35;20.00;99.90
3854;DHT22;1942;48.770;8.934;2022-08-03T06:46:03;20.10;99.90
3854;DHT22;1942;48.770;8.934;2022-08-03T06:48:30;20.20;99.90
3854;DHT22;1942;48.770;8.934;2022-08-03T06:50:56;20.40;99.90
3854;DHT22;1942;48.770;8.934;2022-08-03T06:53:24;20.50;99.90
3854;DHT22;1942;48.770;8.934;2022-08-03T06:55:51;20.60;99.90
3854;DHT22;1942;48.770;8.934;2022-08-03T06:58:18;20.80;99.90
3854;DHT22;1942;48.770;8.934;2022-08-03T07:00:45;20.90;99.90
3854;DHT22;1942;48.770;8.934;2022-08-03T07:03:11;21.10;99.90
3854;DHT22;1942;48.770;8.934;2022-08-03T07:05:40;21.20;99.90
3854;DHT22;1942;48.770;8.934;2022-08-03T07:08:07;21.30;99.90
3854;DHT22;1942;48.770;8.934;2022-08-03T07:10:35;21.50;99.90
3854;DHT22;1942;48.770;8.934;2022-08-03T07:13:02;21.80;99.90
3854;DHT22;1942;48.770;8.934;2022-08-03T07:15:29;22.00;99.90
3854;DHT22;1942;48.770;8.934;2022-08-03T07:17:56;22.10;99.90
3854;DHT22;1942;48.770;8.934;2022-08-03T07:20:23;22.30;99.90
3854;DHT22;1942;48.770;8.934;2022-08-03T07:22:50;22.60;99.90
3854;DHT22;1942;48.770;8.934;2022-08-03T07:25:17;22.80;99.90
3854;DHT22;1942;48.770;8.934;2022-08-03T07:27:46;22.90;99.90
3854;DHT22;1942;48.770;8.934;2022-08-03T07:30:13;23.00;99.90
3854;DHT22;1942;48.770;8.934;2022-08-03T07:32:41;23.10;99.90
3854;DHT22;1942;48.770;8.934;2022-08-03T07:35:08;23.30;99.90
3854;DHT22;1942;48.770;8.934;2022-08-03T07:37:36;23.30;99.90
3854;DHT22;1942;48.770;8.934;2022-08-03T07:40:04;23.40;99.90
3854;DHT22;1942;48.770;8.934;2022-08-03T07:42:31;23.50;99.90
3854;DHT22;1942;48.770;8.934;2022-08-03T07:44:59;23.60;99.90
3854;DHT22;1942;48.770;8.934;2022-08-03T07:47:27;23.60;99.90
3854;DHT22;1942;48.770;8.934;2022-08-03T07:49:55;23.70;99.90
3854;DHT22;1942;48.770;8.934;2022-08-03T07:52:22;23.90;99.90
3854;DHT22;1942;48.770;8.934;2022-08-03T07:55:08;23.90;99.90
3854;DHT22;1942;48.770;8.934;2022-08-03T07:57:34;24.10;99.90
3854;DHT22;1942;48.770;8.934;2022-08-03T08:00:05;24.20;99.90
3854;DHT22;1942;48.770;8.934;2022-08-03T08:02:33;24.30;99.90
3854;DHT22;1942;48.770;8.934;2022-08-03T08:05:00;24.40;99.90
3854;DHT22;1942;48.770;8.934;2022-08-03T08:07:27;24.40;99.90
3854;DHT22;1942;48.770;8.934;2022-08-03T08:09:53;24.60;99.90
3854;DHT22;1942;48.770;8.934;2022-08-03T08:12:20;24.60;99.90
3854;DHT22;1942;48.770;8.934;2022-08-03T08:14:47;24.80;99.90
3854;DHT22;1942;48.770;8.934;2022-08-03T08:17:15;24.90;99.90
3854;DHT22;1942;48.770;8.934;2022-08-03T08:19:42;25.00;99.90
3854;DHT22;1942;48.770;8.934;2022-08-03T08:22:08;25.10;99.90
3854;DHT22;1942;48.770;8.934;2022-08-03T08:24:35;25.30;99.90
3854;DHT22;1942;48.770;8.934;2022-08-03T08:27:02;25.50;99.30
3854;DHT22;1942;48.770;8.934;2022-08-03T08:29:28;25.60;98.70
3854;DHT22;1942;48.770;8.934;2022-08-03T08:31:55;25.80;98.90
3854;DHT22;1942;48.770;8.934;2022-08-03T08:34:23;26.00;97.90
3854;DHT22;1942;48.770;8.934;2022-08-03T08:36:50;26.10;97.70
3854;DHT22;1942;48.770;8.934;2022-08-03T08:39:16;26.40;96.90
3854;DHT22;1942;48.770;8.934;2022-08-03T08:41:43;26.50;97.00
3854;DHT22;1942;48.770;8.934;2022-08-03T08:44:10;26.70;95.40
3854;DHT22;1942;48.770;8.934;2022-08-03T08:46:37;26.90;95.10
3854;DHT22;1942;48.770;8.934;2022-08-03T08:49:06;27.10;95.50
3854;DHT22;1942;48.770;8.934;2022-08-03T08:51:37;27.30;94.20
3854;DHT22;1942;48.770;8.934;2022-08-03T08:54:06;27.60;91.80
3854;DHT22;1942;48.770;8.934;2022-08-03T08:56:35;27.80;91.90
3854;DHT22;1942;48.770;8.934;2022-08-03T08:59:03;28.00;91.20
3854;DHT22;1942;48.770;8.934;2022-08-03T09:01:30;28.20;91.20
3854;DHT22;1942;48.770;8.934;2022-08-03T09:03:56;28.40;89.30
3854;DHT22;1942;48.770;8.934;2022-08-03T09:06:23;28.40;88.90
3854;DHT22;1942;48.770;8.934;2022-08-03T09:08:51;28.50;89.50
3854;DHT22;1942;48.770;8.934;2022-08-03T09:11:20;28.70;86.70
3854;DHT22;1942;48.770;8.934;2022-08-03T09:13:48;28.80;87.00
3854;DHT22;1942;48.770;8.934;2022-08-03T09:16:16;28.90;88.70
3854;DHT22;1942;48.770;8.934;2022-08-03T09:18:46;29.00;85.50
3854;DHT22;1942;48.770;8.934;2022-08-03T09:21:19;29.00;81.50
3854;DHT22;1942;48.770;8.934;2022-08-03T09:23:47;29.10;80.90
3854;DHT22;1942;48.770;8.934;2022-08-03T09:26:23;29.20;80.40
3854;DHT22;1942;48.770;8.934;2022-08-03T09:28:55;29.30;80.30
3854;DHT22;1942;48.770;8.934;2022-08-03T09:31:29;29.50;81.80
3854;DHT22;1942;48.770;8.934;2022-08-03T09:33:57;29.70;80.20
3854;DHT22;1942;48.770;8.934;2022-08-03T09:36:39;29.80;80.50
3854;DHT22;1942;48.770;8.934;2022-08-03T09:39:08;30.00;79.70
3854;DHT22;1942;48.770;8.934;2022-08-03T09:41:39;30.20;79.40
3854;DHT22;1942;48.770;8.934;2022-08-03T09:44:06;30.30;73.60
3854;DHT22;1942;48.770;8.934;2022-08-03T09:46:47;30.40;77.90
3854;DHT22;1942;48.770;8.934;2022-08-03T09:49:13;30.60;77.90
3854;DHT22;1942;48.770;8.934;2022-08-03T09:51:41;30.50;74.90
3854;DHT22;1942;48.770;8.934;2022-08-03T09:54:07;30.60;74.90
3854;DHT22;1942;48.770;8.934;2022-08-03T09:56:43;30.70;76.20
3854;DHT22;1942;48.770;8.934;2022-08-03T09:59:11;30.70;74.00
3854;DHT22;1942;48.770;8.934;2022-08-03T10:01:39;30.80;75.00
3854;DHT22;1942;48.770;8.934;2022-08-03T10:04:13;31.00;73.90
3854;DHT22;1942;48.770;8.934;2022-08-03T10:06:42;31.10;73.20
3854;DHT22;1942;48.770;8.934;2022-08-03T10:09:12;31.10;74.20
3854;DHT22;1942;48.770;8.934;2022-08-03T10:11:40;30.90;71.30
3854;DHT22;1942;48.770;8.934;2022-08-03T10:14:10;31.00;72.10
3854;DHT22;1942;48.770;8.934;2022-08-03T10:16:43;31.20;74.60
3854;DHT22;1942;48.770;8.934;2022-08-03T10:19:10;31.40;73.20
3854;DHT22;1942;48.770;8.934;2022-08-03T10:21:40;31.60;73.40
3854;DHT22;1942;48.770;8.934;2022-08-03T10:24:08;31.70;71.70
3854;DHT22;1942;48.770;8.934;2022-08-03T10:26:37;31.70;68.80
3854;DHT22;1942;48.770;8.934;2022-08-03T10:29:07;31.70;69.70
3854;DHT22;1942;48.770;8.934;2022-08-03T10:31:38;31.80;70.90
3854;DHT22;1942;48.770;8.934;2022-08-03T10:34:10;32.00;71.90
3854;DHT22;1942;48.770;8.934;2022-08-03T10:36:40;32.00;70.80
3854;DHT22;1942;48.770;8.934;2022-08-03T10:39:08;32.10;70.70
3854;DHT22;1942;48.770;8.934;2022-08-03T10:41:39;32.10;68.50
3854;DHT22;1942;48.770;8.934;2022-08-03T10:44:09;32.20;70.50
3854;DHT22;1942;48.770;8.934;2022-08-03T10:46:39;32.40;70.00
3854;DHT22;1942;48.770;8.934;2022-08-03T10:49:07;32.50;68.40
3854;DHT22;1942;48.770;8.934;2022-08-03T10:51:34;32.80;69.20
3854;DHT22;1942;48.770;8.934;2022-08-03T10:54:01;32.50;65.50
3854;DHT22;1942;48.770;8.934;2022-08-03T10:56:38;32.50;68.10
3854;DHT22;1942;48.770;8.934;2022-08-03T10:59:56;32.80;70.30
3854;DHT22;1942;48.770;8.934;2022-08-03T11:05:27;32.90;66.60
3854;DHT22;1942;48.770;8.934;2022-08-03T11:08:18;32.80;67.50
3854;DHT22;1942;48.770;8.934;2022-08-03T11:10:46;33.00;66.70
3854;DHT22;1942;48.770;8.934;2022-08-03T11:13:15;33.00;66.60
3854;DHT22;1942;48.770;8.934;2022-08-03T11:15:43;33.00;66.90
3854;DHT22;1942;48.770;8.934;2022-08-03T11:18:12;33.30;68.00
3854;DHT22;1942;48.770;8.934;2022-08-03T11:20:48;33.40;66.20
3854;DHT22;1942;48.770;8.934;2022-08-03T11:23:18;33.50;66.30
3854;DHT22;1942;48.770;8.934;2022-08-03T11:26:16;33.60;63.40
3854;DHT22;1942;48.770;8.934;2022-08-03T11:28:45;33.80;65.90
3854;DHT22;1942;48.770;8.934;2022-08-03T11:31:42;34.00;65.30
3854;DHT22;1942;48.770;8.934;2022-08-03T11:34:10;34.10;66.00
3854;DHT22;1942;48.770;8.934;2022-08-03T11:39:39;34.60;63.10
3854;DHT22;1942;48.770;8.934;2022-08-03T11:42:39;34.80;62.80
3854;DHT22;1942;48.770;8.934;2022-08-03T11:45:07;35.00;67.40
3854;DHT22;1942;48.770;8.934;2022-08-03T11:47:37;35.00;63.10
3854;DHT22;1942;48.770;8.934;2022-08-03T11:50:05;35.00;65.60
3854;DHT22;1942;48.770;8.934;2022-08-03T11:52:35;35.00;62.80
3854;DHT22;1942;48.770;8.934;2022-08-03T11:55:14;34.80;62.00
3854;DHT22;1942;48.770;8.934;2022-08-03T11:57:41;34.80;61.70
3854;DHT22;1942;48.770;8.934;2022-08-03T12:00:24;34.80;60.80
3854;DHT22;1942;48.770;8.934;2022-08-03T12:03:00;34.90;61.20
3854;DHT22;1942;48.770;8.934;2022-08-03T12:05:44;34.80;62.00
3854;DHT22;1942;48.770;8.934;2022-08-03T12:08:12;34.90;61.20
3854;DHT22;1942;48.770;8.934;2022-08-03T12:10:47;34.70;59.80
3854;DHT22;1942;48.770;8.934;2022-08-03T12:13:16;34.90;60.60
3854;DHT22;1942;48.770;8.934;2022-08-03T12:15:43;34.80;60.20
3854;DHT22;1942;48.770;8.934;2022-08-03T12:18:17;34.80;59.30
3854;DHT22;1942;48.770;8.934;2022-08-03T12:20:46;34.80;59.80
3854;DHT22;1942;48.770;8.934;2022-08-03T12:23:13;34.80;59.10
3854;DHT22;1942;48.770;8.934;2022-08-03T12:25:43;34.90;62.90
3854;DHT22;1942;48.770;8.934;2022-08-03T12:28:15;34.90;61.20
3854;DHT22;1942;48.770;8.934;2022-08-03T12:30:44;35.00;58.20
3854;DHT22;1942;48.770;8.934;2022-08-03T12:33:21;35.10;62.40
3854;DHT22;1942;48.770;8.934;2022-08-03T12:35:49;35.20;58.60
3854;DHT22;1942;48.770;8.934;2022-08-03T12:38:20;35.30;58.90
3854;DHT22;1942;48.770;8.934;2022-08-03T12:41:00;35.20;58.50
3854;DHT22;1942;48.770;8.934;2022-08-03T12:43:27;35.30;58.70
3854;DHT22;1942;48.770;8.934;2022-08-03T12:46:08;35.40;62.70
3854;DHT22;1942;48.770;8.934;2022-08-03T12:48:35;35.70;59.00
3854;DHT22;1942;48.770;8.934;2022-08-03T12:51:09;35.90;67.60
3854;DHT22;1942;48.770;8.934;2022-08-03T12:53:36;35.90;57.20
3854;DHT22;1942;48.770;8.934;2022-08-03T12:56:05;35.80;56.80
3854;DHT22;1942;48.770;8.934;2022-08-03T12:58:34;35.80;56.10
3854;DHT22;1942;48.770;8.934;2022-08-03T13:01:02;35.90;56.00
3854;DHT22;1942;48.770;8.934;2022-08-03T13:03:38;36.10;57.10
3854;DHT22;1942;48.770;8.934;2022-08-03T13:06:10;36.20;57.00
3854;DHT22;1942;48.770;8.934;2022-08-03T13:08:37;36.40;57.50
3854;DHT22;1942;48.770;8.934;2022-08-03T13:11:22;36.20;55.40
3854;DHT22;1942;48.770;8.934;2022-08-03T13:13:50;36.40;55.30
3854;DHT22;1942;48.770;8.934;2022-08-03T13:16:17;36.40;54.60
3854;DHT22;1942;48.770;8.934;2022-08-03T13:18:46;36.20;54.80
3854;DHT22;1942;48.770;8.934;2022-08-03T13:21:14;36.20;55.10
3854;DHT22;1942;48.770;8.934;2022-08-03T13:23:42;36.60;54.40
3854;DHT22;1942;48.770;8.934;2022-08-03T13:26:09;36.70;53.70
3854;DHT22;1942;48.770;8.934;2022-08-03T13:28:38;36.70;55.10
3854;DHT22;1942;48.770;8.934;2022-08-03T13:31:05;36.60;57.80
3854;DHT22;1942;48.770;8.934;2022-08-03T13:33:32;36.80;59.50
3854;DHT22;1942;48.770;8.934;2022-08-03T13:35:59;36.80;54.70
3854;DHT22;1942;48.770;8.934;2022-08-03T13:38:28;36.70;54.60
3854;DHT22;1942;48.770;8.934;2022-08-03T13:40:56;36.70;56.30
3854;DHT22;1942;48.770;8.934;2022-08-03T13:43:24;36.90;55.30
3854;DHT22;1942;48.770;8.934;2022-08-03T13:45:54;37.10;55.60
3854;DHT22;1942;48.770;8.934;2022-08-03T13:48:21;37.20;55.10
3854;DHT22;1942;48.770;8.934;2022-08-03T13:50:48;37.00;53.40
3854;DHT22;1942;48.770;8.934;2022-08-03T13:53:15;36.90;53.60
3854;DHT22;1942;48.770;8.934;2022-08-03T13:55:42;36.90;55.30
3854;DHT22;1942;48.770;8.934;2022-08-03T13:58:09;36.80;53.80
3854;DHT22;1942;48.770;8.934;2022-08-03T14:00:37;37.00;54.40
3854;DHT22;1942;48.770;8.934;2022-08-03T14:03:08;37.10;54.10
3854;DHT22;1942;48.770;8.934;2022-08-03T14:05:35;37.00;54.10
3854;DHT22;1942;48.770;8.934;2022-08-03T14:08:04;37.00;53.50
3854;DHT22;1942;48.770;8.934;2022-08-03T14:10:32;37.00;53.20
3854;DHT22;1942;48.770;8.934;2022-08-03T14:12:59;36.70;52.80
3854;DHT22;1942;48.770;8.934;2022-08-03T14:15:26;36.40;53.30
3854;DHT22;1942;48.770;8.934;2022-08-03T14:17:53;36.20;53.10
3854;DHT22;1942;48.770;8.934;2022-08-03T14:20:22;36.30;54.20
3854;DHT22;1942;48.770;8.934;2022-08-03T14:22:49;36.20;53.70
3854;DHT22;1942;48.770;8.934;2022-08-03T14:25:16;36.30;55.10
3854;DHT22;1942;48.770;8.934;2022-08-03T14:27:43;36.50;54.80
3854;DHT22;1942;48.770;8.934;2022-08-03T14:30:11;36.60;54.10
3854;DHT22;1942;48.770;8.934;2022-08-03T14:32:38;36.40;52.80
3854;DHT22;1942;48.770;8.934;2022-08-03T14:35:06;36.20;52.90
3854;DHT22;1942;48.770;8.934;2022-08-03T14:37:34;36.40;56.50
3854;DHT22;1942;48.770;8.934;2022-08-03T14:40:01;36.60;54.90
3854;DHT22;1942;48.770;8.934;2022-08-03T14:42:28;36.60;56.00
3854;DHT22;1942;48.770;8.934;2022-08-03T14:44:55;36.70;54.20
3854;DHT22;1942;48.770;8.934;2022-08-03T14:47:24;36.90;53.90
3854;DHT22;1942;48.770;8.934;2022-08-03T14:49:51;36.90;52.70
3854;DHT22;1942;48.770;8.934;2022-08-03T14:52:18;36.80;53.80
3854;DHT22;1942;48.770;8.934;2022-08-03T14:54:46;36.90;53.40
3854;DHT22;1942;48.770;8.934;2022-08-03T14:57:14;36.90;53.80
3854;DHT22;1942;48.770;8.934;2022-08-03T14:59:40;36.90;53.40
3854;DHT22;1942;48.770;8.934;2022-08-03T15:02:07;36.80;52.60
3854;DHT22;1942;48.770;8.934;2022-08-03T15:04:34;37.00;54.10
3854;DHT22;1942;48.770;8.934;2022-08-03T15:07:01;37.00;53.10
3854;DHT22;1942;48.770;8.934;2022-08-03T15:09:28;37.00;53.50
3854;DHT22;1942;48.770;8.934;2022-08-03T15:11:57;36.90;53.00
3854;DHT22;1942;48.770;8.934;2022-08-03T15:14:24;37.10;54.90
3854;DHT22;1942;48.770;8.934;2022-08-03T15:16:51;37.30;54.30
3854;DHT22;1942;48.770;8.934;2022-08-03T15:19:17;37.40;52.60
3854;DHT22;1942;48.770;8.934;2022-08-03T15:21:44;37.20;51.90
3854;DHT22;1942;48.770;8.934;2022-08-03T15:24:11;36.90;53.10
3854;DHT22;1942;48.770;8.934;2022-08-03T15:26:38;36.90;54.00
3854;DHT22;1942;48.770;8.934;2022-08-03T15:29:06;36.90;54.10
3854;DHT22;1942;48.770;8.934;2022-08-03T15:31:33;36.90;53.10
3854;DHT22;1942;48.770;8.934;2022-08-03T15:34:00;36.90;56.80
3854;DHT22;1942;48.770;8.934;2022-08-03T15:36:27;37.10;53.80
3854;DHT22;1942;48.770;8.934;2022-08-03T15:38:54;36.90;53.90
3854;DHT22;1942;48.770;8.934;2022-08-03T15:41:21;36.90;52.90
3854;DHT22;1942;48.770;8.934;2022-08-03T15:43:48;36.90;53.20
3854;DHT22;1942;48.770;8.934;2022-08-03T15:46:18;36.90;53.80
3854;DHT22;1942;48.770;8.934;2022-08-03T15:48:45;36.80;52.60
3854;DHT22;1942;48.770;8.934;2022-08-03T15:51:12;36.80;53.80
3854;DHT22;1942;48.770;8.934;2022-08-03T15:53:39;36.60;54.20
3854;DHT22;1942;48.770;8.934;2022-08-03T15:56:06;36.70;53.30
3854;DHT22;1942;48.770;8.934;2022-08-03T15:58:34;36.80;53.10
3854;DHT22;1942;48.770;8.934;2022-08-03T16:01:02;36.90;54.90
3854;DHT22;1942;48.770;8.934;2022-08-03T16:03:31;36.80;53.30
3854;DHT22;1942;48.770;8.934;2022-08-03T16:06:00;36.90;54.90
3854;DHT22;1942;48.770;8.934;2022-08-03T16:08:27;36.70;53.30
3854;DHT22;1942;48.770;8.934;2022-08-03T16:10:54;36.60;53.70
3854;DHT22;1942;48.770;8.934;2022-08-03T16:13:21;36.60;53.30
3854;DHT22;1942;48.770;8.934;2022-08-03T16:15:48;36.40;54.60
3854;DHT22;1942;48.770;8.934;2022-08-03T16:18:15;36.10;56.20
3854;DHT22;1942;48.770;8.934;2022-08-03T16:20:44;35.80;56.50